createdAt,value
2018-06-18T00:01:50.122Z,19.00
2018-06-18T00:04:19.062Z,19.00
2018-06-18T00:06:48.046Z,19.00
2018-06-18T00:09:17.090Z,18.90
2018-06-18T00:11:46.129Z,19.00
2018-06-18T00:14:15.068Z,19.00
2018-06-18T00:16:44.079Z,19.00
2018-06-18T00:19:12.989Z,19.00
2018-06-18T00:21:41.929Z,19.00
2018-06-18T00:24:11.138Z,19.00
2018-06-18T00:26:40.074Z,19.00
2018-06-18T00:29:09.245Z,19.00
2018-06-18T00:31:38.242Z,19.00
2018-06-18T00:34:07.190Z,19.00
2018-06-18T00:36:36.181Z,18.90
2018-06-18T00:39:07.182Z,19.00
2018-06-18T00:41:36.085Z,19.00
2018-06-18T00:44:05.014Z,19.00
2018-06-18T00:46:34.095Z,18.90
2018-06-18T00:49:02.994Z,18.80
2018-06-18T00:51:31.945Z,18.70
2018-06-18T00:54:01.055Z,18.60
2018-06-18T00:56:29.989Z,18.50
2018-06-18T00:58:59.117Z,18.60
2018-06-18T01:01:28.056Z,18.60
2018-06-18T01:03:57.000Z,18.60
2018-06-18T01:08:54.411Z,18.50
2018-06-18T01:11:23.540Z,18.50
2018-06-18T01:13:52.437Z,18.70
2018-06-18T01:16:21.647Z,18.70
2018-06-18T01:18:50.608Z,18.80
2018-06-18T01:21:19.695Z,18.90
2018-06-18T01:24:02.053Z,18.80
2018-06-18T01:26:31.031Z,18.80
2018-06-18T01:29:00.002Z,18.60
2018-06-18T01:31:28.949Z,18.50
2018-06-18T01:34:00.072Z,18.50
2018-06-18T01:36:28.962Z,18.40
2018-06-18T01:38:58.142Z,18.40
2018-06-18T01:41:27.012Z,18.30
2018-06-18T01:43:55.929Z,18.30
2018-06-18T01:46:24.894Z,18.30
2018-06-18T01:48:53.994Z,18.20
2018-06-18T01:51:23.177Z,18.20
2018-06-18T01:53:52.246Z,18.20
2018-06-18T01:56:21.178Z,18.20
2018-06-18T01:58:50.106Z,18.20
2018-06-18T02:01:19.150Z,18.20
2018-06-18T02:03:48.123Z,18.20
2018-06-18T02:06:17.271Z,18.20
2018-06-18T02:08:46.514Z,18.20
2018-06-18T02:11:15.391Z,18.20
2018-06-18T02:13:44.465Z,18.10
2018-06-18T02:16:13.544Z,18.10
2018-06-18T02:18:42.410Z,18.00
2018-06-18T02:21:11.333Z,18.00
2018-06-18T02:23:40.442Z,18.00
2018-06-18T02:26:09.400Z,18.00
2018-06-18T02:28:38.273Z,18.00
2018-06-18T02:31:07.528Z,18.00
2018-06-18T02:33:36.471Z,17.90
2018-06-18T02:36:05.361Z,17.80
2018-06-18T02:38:34.535Z,17.80
2018-06-18T02:41:03.725Z,17.70
2018-06-18T02:43:32.769Z,17.70
2018-06-18T02:46:01.820Z,17.80
2018-06-18T02:48:30.729Z,17.80
2018-06-18T02:50:59.662Z,17.70
2018-06-18T02:53:30.155Z,17.60
2018-06-18T02:55:59.829Z,17.60
2018-06-18T02:58:28.917Z,17.60
2018-06-18T03:00:57.877Z,17.60
2018-06-18T03:03:26.882Z,17.60
2018-06-18T03:05:55.785Z,17.60
2018-06-18T03:08:24.883Z,17.60
2018-06-18T03:10:53.833Z,17.60
2018-06-18T03:13:23.058Z,17.60
2018-06-18T03:15:52.023Z,17.60
2018-06-18T03:18:21.029Z,17.60
2018-06-18T03:20:50.021Z,17.60
2018-06-18T03:23:19.410Z,17.60
2018-06-18T03:25:48.371Z,17.60
2018-06-18T03:30:45.897Z,17.60
2018-06-18T03:33:15.052Z,17.60
2018-06-18T03:35:43.964Z,17.60
2018-06-18T03:38:12.938Z,17.60
2018-06-18T03:40:41.928Z,17.60
2018-06-18T03:43:10.935Z,17.50
2018-06-18T03:45:40.080Z,17.50
2018-06-18T03:48:10.953Z,17.50
2018-06-18T03:50:40.266Z,17.50
2018-06-18T03:53:09.191Z,17.50
2018-06-18T03:55:44.024Z,17.50
2018-06-18T03:58:12.938Z,17.40
2018-06-18T04:01:24.326Z,17.40
2018-06-18T04:03:55.623Z,17.50
2018-06-18T04:06:25.074Z,17.60
2018-06-18T04:08:54.138Z,17.70
2018-06-18T04:11:23.092Z,17.70
2018-06-18T04:13:52.274Z,17.80
2018-06-18T04:16:21.265Z,17.90
2018-06-18T04:18:50.222Z,17.90
2018-06-18T04:21:19.548Z,17.80
2018-06-18T04:23:48.542Z,17.80
2018-06-18T04:26:17.787Z,17.90
2018-06-18T04:28:46.780Z,18.00
2018-06-18T04:31:15.854Z,18.10
2018-06-18T04:34:54.297Z,18.10
2018-06-18T04:37:23.247Z,18.20
2018-06-18T04:39:52.187Z,18.20
2018-06-18T04:42:21.118Z,18.30
2018-06-18T04:44:50.574Z,18.40
2018-06-18T04:47:19.546Z,18.40
2018-06-18T04:49:48.551Z,18.50
2018-06-18T04:52:17.590Z,18.50
2018-06-18T04:54:46.512Z,18.60
2018-06-18T04:57:15.419Z,18.60
2018-06-18T04:59:48.109Z,18.60
2018-06-18T05:02:17.246Z,18.70
2018-06-18T05:04:46.313Z,18.70
2018-06-18T05:07:15.631Z,18.70
2018-06-18T05:09:54.337Z,18.70
2018-06-18T05:12:23.280Z,18.70
2018-06-18T05:14:52.260Z,18.80
2018-06-18T05:17:21.211Z,19.00
2018-06-18T05:19:50.345Z,19.00
2018-06-18T05:22:19.277Z,19.10
2018-06-18T05:24:49.047Z,19.10
2018-06-18T05:27:18.910Z,19.10
2018-06-18T05:29:48.003Z,19.10
2018-06-18T05:32:16.976Z,19.20
2018-06-18T05:34:46.744Z,19.30
2018-06-18T05:37:20.447Z,19.40
2018-06-18T05:39:49.359Z,19.60
2018-06-18T05:42:18.305Z,19.60
2018-06-18T05:44:47.219Z,19.80
2018-06-18T05:47:16.314Z,19.90
2018-06-18T05:49:45.291Z,20.00
2018-06-18T05:52:14.515Z,20.20
2018-06-18T05:54:43.483Z,20.30
2018-06-18T05:57:12.571Z,20.50
2018-06-18T05:59:41.538Z,20.70
2018-06-18T06:02:10.474Z,20.90
2018-06-18T06:04:39.449Z,21.00
2018-06-18T06:07:08.788Z,21.10
2018-06-18T06:09:37.995Z,21.00
2018-06-18T06:12:07.866Z,21.00
2018-06-18T06:14:36.830Z,21.00
2018-06-18T06:17:05.997Z,21.10
2018-06-18T06:19:35.021Z,21.00
2018-06-18T06:22:03.890Z,20.90
2018-06-18T06:24:32.810Z,20.80
2018-06-18T06:27:01.753Z,20.70
2018-06-18T06:29:30.888Z,20.70
2018-06-18T06:31:59.733Z,20.80
2018-06-18T06:34:29.266Z,20.80
2018-06-18T06:36:58.186Z,20.90
2018-06-18T06:39:27.117Z,20.80
2018-06-18T06:42:02.490Z,20.90
2018-06-18T06:44:31.510Z,20.90
2018-06-18T06:47:00.618Z,21.00
2018-06-18T06:49:29.578Z,21.10
2018-06-18T06:51:58.559Z,21.30
2018-06-18T06:54:27.459Z,21.40
2018-06-18T06:56:56.487Z,21.50
2018-06-18T06:59:25.430Z,21.50
2018-06-18T07:01:54.430Z,21.50
2018-06-18T07:04:23.403Z,21.50
2018-06-18T07:06:52.438Z,21.50
2018-06-18T07:11:49.929Z,21.50
2018-06-18T07:14:25.875Z,21.60
2018-06-18T07:16:54.805Z,21.70
2018-06-18T07:19:23.893Z,21.70
2018-06-18T07:21:52.779Z,21.80
2018-06-18T07:24:21.745Z,21.80
2018-06-18T07:26:50.637Z,21.90
2018-06-18T07:29:19.816Z,21.90
2018-06-18T07:34:17.263Z,21.80
2018-06-18T07:36:46.238Z,21.70
2018-06-18T07:39:15.274Z,21.70
2018-06-18T07:41:44.182Z,21.70
2018-06-18T07:44:13.239Z,21.70
2018-06-18T07:49:10.656Z,22.00
2018-06-18T07:51:40.093Z,22.20
2018-06-18T07:54:09.057Z,22.20
2018-06-18T07:56:39.959Z,22.20
2018-06-18T07:59:08.964Z,22.30
2018-06-18T08:01:37.940Z,22.50
2018-06-18T08:04:06.868Z,22.70
2018-06-18T08:06:35.786Z,22.90
2018-06-18T08:09:08.212Z,23.00
2018-06-18T08:11:37.208Z,23.10
2018-06-18T08:14:06.238Z,23.20
2018-06-18T08:16:35.322Z,23.30
2018-06-18T08:19:04.435Z,23.30
2018-06-18T08:21:33.444Z,23.40
2018-06-18T08:24:02.794Z,23.50
2018-06-18T08:26:31.955Z,23.50
2018-06-18T08:29:00.888Z,23.50
2018-06-18T08:31:29.957Z,23.50
2018-06-18T08:33:58.980Z,23.40
2018-06-18T08:36:27.907Z,23.30
2018-06-18T08:38:56.842Z,23.30
2018-06-18T08:41:25.883Z,23.20
2018-06-18T08:43:54.878Z,23.10
2018-06-18T08:46:23.834Z,23.10
2018-06-18T08:48:52.949Z,22.90
2018-06-18T08:51:22.202Z,22.80
2018-06-18T08:53:51.363Z,22.70
2018-06-18T08:56:20.369Z,22.70
2018-06-18T08:58:49.345Z,22.70
2018-06-18T09:01:18.344Z,22.70
2018-06-18T09:03:47.332Z,22.60
2018-06-18T09:08:45.101Z,22.70
2018-06-18T09:11:14.170Z,22.70
2018-06-18T09:13:43.101Z,22.70
2018-06-18T09:16:12.049Z,22.70
2018-06-18T09:18:41.164Z,22.80
2018-06-18T09:21:10.331Z,22.80
2018-06-18T09:23:39.316Z,22.90
2018-06-18T09:26:08.265Z,23.10
2018-06-18T09:28:37.241Z,23.30
2018-06-18T09:31:06.174Z,23.40
2018-06-18T09:33:35.159Z,23.60
2018-06-18T09:36:04.097Z,23.80
2018-06-18T09:38:33.025Z,23.90
2018-06-18T09:41:01.924Z,23.90
2018-06-18T09:43:31.057Z,23.90
2018-06-18T09:46:00.008Z,23.90
2018-06-18T09:48:29.239Z,23.90
2018-06-18T09:50:58.633Z,23.90
2018-06-18T09:53:27.617Z,23.70
2018-06-18T09:55:56.637Z,23.70
2018-06-18T09:58:26.466Z,23.60
2018-06-18T10:01:16.472Z,23.60
2018-06-18T10:06:13.968Z,23.70
2018-06-18T10:08:43.198Z,23.70
2018-06-18T10:11:12.113Z,23.70
2018-06-18T10:13:41.049Z,23.70
2018-06-18T10:16:10.200Z,23.70
2018-06-18T10:18:39.228Z,23.70
2018-06-18T10:21:08.151Z,23.70
2018-06-18T10:23:37.190Z,23.60
2018-06-18T10:28:34.554Z,23.70
2018-06-18T10:31:03.496Z,23.80
2018-06-18T10:33:32.658Z,23.90
2018-06-18T10:36:01.574Z,24.00
2018-06-18T10:38:30.810Z,24.10
2018-06-18T10:40:59.758Z,24.00
2018-06-18T10:45:57.210Z,23.70
2018-06-18T10:48:26.153Z,23.70
2018-06-18T10:50:55.156Z,23.80
2018-06-18T10:53:24.198Z,23.80
2018-06-18T10:55:53.282Z,23.80
2018-06-18T10:58:22.678Z,24.00
2018-06-18T11:00:55.836Z,24.10
2018-06-18T11:03:24.854Z,24.20
2018-06-18T11:05:53.951Z,24.30
2018-06-18T11:10:51.297Z,24.10
2018-06-18T11:13:20.334Z,24.00
2018-06-18T11:15:49.330Z,23.90
2018-06-18T11:18:18.374Z,23.80
2018-06-18T11:20:47.346Z,23.80
2018-06-18T11:23:16.436Z,23.80
2018-06-18T11:25:45.405Z,23.80
2018-06-18T11:28:14.404Z,23.90
2018-06-18T11:30:43.432Z,24.00
2018-06-18T11:33:27.012Z,24.20
2018-06-18T11:35:55.971Z,24.20
2018-06-18T11:38:24.979Z,24.30
2018-06-18T11:40:54.024Z,24.30
2018-06-18T11:43:22.996Z,24.30
2018-06-18T11:45:51.924Z,24.30
2018-06-18T11:48:21.193Z,24.30
2018-06-18T11:50:50.321Z,24.30
2018-06-18T11:53:19.206Z,24.10
2018-06-18T11:55:48.255Z,24.00
2018-06-18T11:58:17.229Z,23.70
2018-06-18T12:00:46.325Z,23.50
2018-06-18T12:03:15.389Z,23.40
2018-06-18T12:05:44.501Z,23.40
2018-06-18T12:08:13.463Z,23.40
2018-06-18T12:10:42.527Z,23.50
2018-06-18T12:13:11.533Z,23.70
2018-06-18T12:15:40.599Z,23.80
2018-06-18T12:18:09.578Z,24.00
2018-06-18T12:20:38.568Z,24.00
2018-06-18T12:23:07.522Z,23.90
2018-06-18T12:25:36.668Z,23.80
2018-06-18T12:28:05.795Z,23.80
2018-06-18T12:30:34.726Z,23.70
2018-06-18T12:33:03.710Z,23.60
2018-06-18T12:38:01.148Z,23.40
2018-06-18T12:40:30.104Z,23.30
2018-06-18T12:42:59.057Z,23.20
2018-06-18T12:45:28.850Z,23.20
2018-06-18T12:47:57.769Z,23.10
2018-06-18T12:50:26.691Z,23.00
2018-06-18T12:52:55.694Z,22.80
2018-06-18T12:55:24.703Z,22.70
2018-06-18T12:57:53.744Z,22.60
2018-06-18T13:02:55.055Z,22.60
2018-06-18T13:05:24.136Z,22.60
2018-06-18T13:07:53.097Z,22.70
2018-06-18T13:10:22.130Z,22.70
2018-06-18T13:12:51.052Z,22.80
2018-06-18T13:15:20.070Z,22.80
2018-06-18T13:17:48.958Z,22.90
2018-06-18T13:20:18.987Z,23.00
2018-06-18T13:22:51.670Z,23.10
2018-06-18T13:25:37.587Z,23.10
2018-06-18T13:28:15.236Z,23.30
2018-06-18T13:30:48.977Z,23.30
2018-06-18T13:39:07.622Z,23.40
2018-06-18T13:41:59.705Z,23.40
2018-06-18T13:44:35.938Z,23.40
2018-06-18T13:47:08.744Z,23.60
2018-06-18T13:49:38.534Z,23.70
2018-06-18T13:52:09.184Z,23.90
2018-06-18T13:54:44.372Z,24.00
2018-06-18T13:57:17.423Z,24.00
2018-06-18T13:59:48.997Z,24.00
2018-06-18T14:02:35.940Z,24.10
2018-06-18T14:07:11.363Z,24.30
2018-06-18T14:09:46.009Z,24.30
2018-06-18T14:15:18.981Z,24.60
2018-06-18T14:22:57.516Z,24.80
2018-06-18T14:25:32.712Z,24.80
2018-06-18T14:30:47.541Z,24.80
2018-06-18T14:33:25.253Z,24.80
2018-06-18T14:35:56.206Z,24.80
2018-06-18T14:38:27.553Z,24.60
2018-06-18T14:40:57.290Z,24.60
2018-06-18T14:43:27.184Z,24.50
2018-06-18T14:45:59.533Z,24.40
2018-06-18T14:48:29.260Z,24.30
2018-06-18T14:50:58.614Z,24.20
2018-06-18T14:53:27.704Z,24.10
2018-06-18T14:56:32.933Z,24.00
2018-06-18T15:00:11.999Z,23.90
2018-06-18T15:05:10.058Z,23.80
2018-06-18T15:07:39.057Z,23.80
2018-06-18T15:10:08.266Z,23.80
2018-06-18T15:12:51.156Z,23.90
2018-06-18T15:15:20.063Z,24.00
2018-06-18T15:17:49.238Z,24.00
2018-06-18T15:20:19.223Z,24.20
2018-06-18T15:22:54.757Z,24.30
2018-06-18T15:25:24.388Z,24.40
2018-06-18T15:27:53.367Z,24.50
2018-06-18T15:30:22.340Z,24.50
2018-06-18T15:32:51.422Z,24.50
2018-06-18T15:35:20.317Z,24.50
2018-06-18T15:37:49.363Z,24.40
2018-06-18T15:40:18.650Z,24.30
2018-06-18T15:42:47.858Z,24.30
2018-06-18T15:45:16.987Z,24.30
2018-06-18T15:47:45.929Z,24.30
2018-06-18T15:50:14.998Z,24.30
2018-06-18T15:52:44.110Z,24.20
2018-06-18T15:55:13.226Z,24.20
2018-06-18T15:57:42.297Z,24.10
2018-06-18T16:00:11.286Z,24.00
2018-06-18T16:02:40.227Z,23.90
2018-06-18T16:05:09.151Z,24.00
2018-06-18T16:07:38.143Z,24.00
2018-06-18T16:10:07.142Z,24.10
2018-06-18T16:12:36.099Z,24.20
2018-06-18T16:15:05.151Z,24.20
2018-06-18T16:17:34.314Z,24.30
2018-06-18T16:20:03.748Z,24.40
2018-06-18T16:22:32.824Z,24.40
2018-06-18T16:25:02.001Z,24.40
2018-06-18T16:27:31.013Z,24.40
2018-06-18T16:32:30.230Z,24.30
2018-06-18T16:34:59.431Z,24.30
2018-06-18T16:37:28.386Z,24.30
2018-06-18T16:39:57.415Z,24.40
2018-06-18T16:42:26.403Z,24.40
2018-06-18T16:44:55.504Z,24.30
2018-06-18T16:47:24.875Z,24.30
2018-06-18T16:49:54.206Z,24.30
2018-06-18T16:52:23.206Z,24.30
2018-06-18T16:54:52.150Z,24.30
2018-06-18T16:57:21.346Z,24.30
2018-06-18T16:59:50.380Z,24.30
2018-06-18T17:02:19.336Z,24.40
2018-06-18T17:04:48.290Z,24.40
2018-06-18T17:07:17.322Z,24.40
2018-06-18T17:14:43.768Z,24.20
2018-06-18T17:17:13.061Z,24.10
2018-06-18T17:19:42.105Z,24.10
2018-06-18T17:22:11.580Z,24.10
2018-06-18T17:24:41.476Z,24.10
2018-06-18T17:27:10.720Z,24.00
2018-06-18T17:29:39.676Z,23.90
2018-06-18T17:32:08.753Z,24.00
2018-06-18T17:34:37.743Z,24.00
2018-06-18T17:37:06.786Z,24.10
2018-06-18T17:39:35.836Z,24.00
2018-06-18T17:42:04.964Z,24.00
2018-06-18T17:44:33.977Z,24.00
2018-06-18T17:47:03.021Z,24.10
2018-06-18T17:49:32.026Z,24.10
2018-06-18T17:52:01.159Z,24.10
2018-06-18T17:54:30.197Z,24.20
2018-06-18T17:56:59.214Z,24.10
2018-06-18T17:59:28.596Z,24.20
2018-06-18T18:04:26.252Z,24.10
2018-06-18T18:06:55.334Z,24.10
2018-06-18T18:09:24.457Z,24.10
2018-06-18T18:11:53.442Z,24.10
2018-06-18T18:14:22.428Z,24.10
2018-06-18T18:16:51.428Z,24.00
2018-06-18T18:19:20.442Z,24.00
2018-06-18T18:21:49.360Z,23.90
2018-06-18T18:24:18.995Z,23.80
2018-06-18T18:26:48.154Z,23.70
2018-06-18T18:29:17.142Z,23.70
2018-06-18T18:31:46.151Z,23.70
2018-06-18T18:34:15.116Z,23.70
2018-06-18T18:36:44.226Z,23.60
2018-06-18T18:39:13.254Z,23.50
2018-06-18T18:41:42.374Z,23.40
2018-06-18T18:44:11.432Z,23.30
2018-06-18T18:46:40.490Z,23.30
2018-06-18T18:49:09.507Z,23.30
2018-06-18T18:51:38.438Z,23.20
2018-06-18T18:54:17.409Z,23.10
2018-06-18T18:56:57.685Z,23.10
2018-06-18T18:59:27.750Z,23.00
2018-06-18T19:04:31.402Z,23.00
2018-06-18T19:07:00.785Z,22.80
2018-06-18T19:09:36.182Z,22.80
2018-06-18T19:12:05.463Z,22.70
2018-06-18T19:14:34.530Z,22.60
2018-06-18T19:17:03.682Z,22.50
2018-06-18T19:19:40.230Z,22.40
2018-06-18T19:22:10.110Z,22.40
2018-06-18T19:24:39.036Z,22.50
2018-06-18T19:27:09.818Z,22.50
2018-06-18T19:29:39.086Z,22.50
2018-06-18T19:32:08.281Z,22.40
2018-06-18T19:34:37.285Z,22.30
2018-06-18T19:37:06.542Z,22.30
2018-06-18T19:39:42.084Z,22.30
2018-06-18T19:42:11.545Z,22.20
2018-06-18T19:44:40.641Z,22.20
2018-06-18T19:47:20.183Z,22.10
2018-06-18T19:54:49.680Z,22.10
2018-06-18T19:57:18.662Z,22.00
2018-06-18T19:59:47.837Z,22.10
2018-06-18T20:02:16.857Z,22.00
2018-06-18T20:04:45.827Z,22.10
2018-06-18T20:07:15.143Z,22.00
2018-06-18T20:09:44.119Z,21.90
2018-06-18T20:12:13.074Z,21.90
2018-06-18T20:14:53.782Z,21.70
2018-06-18T20:17:24.825Z,21.70
2018-06-18T20:20:03.516Z,21.70
2018-06-18T20:22:35.205Z,21.60
2018-06-18T20:25:20.158Z,21.60
2018-06-18T20:28:01.932Z,21.60
2018-06-18T20:30:31.874Z,21.50
2018-06-18T20:33:11.519Z,21.50
2018-06-18T20:35:47.275Z,21.50
2018-06-18T20:38:16.221Z,21.50
2018-06-18T20:40:45.242Z,21.50
2018-06-18T20:43:14.260Z,21.50
2018-06-18T20:45:43.254Z,21.50
2018-06-18T20:50:40.878Z,21.40
2018-06-18T20:53:09.878Z,21.30
2018-06-18T20:55:38.800Z,21.30
2018-06-18T20:58:07.735Z,21.20
2018-06-18T21:00:36.822Z,21.20
2018-06-18T21:03:05.810Z,21.20
2018-06-18T21:05:34.812Z,21.20
2018-06-18T21:08:03.810Z,21.10
2018-06-18T21:10:32.814Z,21.10
2018-06-18T21:13:02.005Z,21.10
2018-06-18T21:15:31.345Z,21.00
2018-06-18T21:18:00.330Z,21.00
2018-06-18T21:20:29.515Z,20.90
2018-06-18T21:22:58.442Z,21.00
2018-06-18T21:25:27.352Z,20.90
2018-06-18T21:27:56.351Z,20.90
2018-06-18T21:30:25.314Z,20.80
2018-06-18T21:32:54.467Z,20.80
2018-06-18T21:35:23.354Z,20.70
2018-06-18T21:37:52.314Z,20.70
2018-06-18T21:40:21.493Z,20.60
2018-06-18T21:42:50.524Z,20.60
2018-06-18T21:45:21.574Z,20.50
2018-06-18T21:47:50.808Z,20.50
2018-06-18T21:50:19.790Z,20.40
2018-06-18T21:52:48.753Z,20.40
2018-06-18T21:55:17.702Z,20.40
2018-06-18T21:57:46.614Z,20.30
2018-06-18T22:00:26.957Z,20.30
2018-06-18T22:05:24.603Z,20.20
2018-06-18T22:07:54.021Z,20.10
2018-06-18T22:10:23.040Z,20.10
2018-06-18T22:12:52.045Z,20.10
2018-06-18T22:15:21.045Z,20.10
2018-06-18T22:17:50.228Z,20.10
2018-06-18T22:20:19.159Z,20.10
2018-06-18T22:22:48.241Z,20.00
2018-06-18T22:25:17.206Z,19.90
2018-06-18T22:27:46.374Z,19.90
2018-06-18T22:30:15.517Z,19.80
2018-06-18T22:32:44.509Z,19.80
2018-06-18T22:35:13.458Z,19.80
2018-06-18T22:37:42.617Z,19.80
2018-06-18T22:40:11.581Z,19.80
2018-06-18T22:42:40.546Z,19.70
2018-06-18T22:45:10.455Z,19.70
2018-06-18T22:47:39.571Z,19.70
2018-06-18T22:50:08.650Z,19.70
2018-06-18T22:52:37.626Z,19.70
2018-06-18T22:55:06.677Z,19.70
2018-06-18T22:57:44.097Z,19.60
2018-06-18T23:02:41.755Z,19.50
2018-06-18T23:05:10.774Z,19.50
2018-06-18T23:07:39.774Z,19.50
2018-06-18T23:10:08.946Z,19.50
2018-06-18T23:12:41.263Z,19.50
2018-06-18T23:15:11.581Z,19.50
2018-06-18T23:17:40.853Z,19.50
2018-06-18T23:20:09.904Z,19.50
2018-06-18T23:22:39.109Z,19.50
2018-06-18T23:25:08.142Z,19.60
2018-06-18T23:27:37.305Z,19.60
2018-06-18T23:30:06.279Z,19.60
2018-06-18T23:32:35.221Z,19.60
2018-06-18T23:35:04.410Z,19.60
2018-06-18T23:40:02.010Z,19.50
2018-06-18T23:42:31.148Z,19.50
2018-06-18T23:45:00.047Z,19.50
2018-06-18T23:47:29.013Z,19.40
2018-06-18T23:49:58.176Z,19.40
2018-06-18T23:52:27.101Z,19.30
2018-06-18T23:54:56.216Z,19.30
2018-06-18T23:57:25.222Z,19.20
2018-06-18T23:59:54.213Z,19.10
